Time;durP1;ratioP1;P1;durP2;ratioP2;P2;SDS_P1;SDS_P2;PMS_P1;PMS_P2;Temp;Humidity;BMP_temperature;BMP_pressure;BME280_temperature;BME280_humidity;BME280_pressure;Samples;Min_cycle;Max_cycle;Signal;HPM_P1;HPM_P2
2022/10/17 00:00:14;;;;;;;11.80;6.80;;;17.20;99.90;;;;;;5027777;28;20064;-84
2022/10/17 00:02:40;;;;;;;10.85;6.50;;;17.10;99.90;;;;;;4994774;28;20083;-84
2022/10/17 00:05:05;;;;;;;13.60;6.22;;;17.10;99.90;;;;;;5018159;28;20516;-84
2022/10/17 00:07:31;;;;;;;9.60;6.70;;;17.10;99.90;;;;;;5016998;28;20032;-84
2022/10/17 00:09:57;;;;;;;9.35;6.25;;;17.10;99.90;;;;;;5016054;28;20497;-84
2022/10/17 00:12:22;;;;;;;8.25;6.20;;;17.00;99.90;;;;;;5031229;28;20082;-85
2022/10/17 00:14:48;;;;;;;12.68;7.03;;;17.10;99.90;;;;;;4978058;28;20046;-84
2022/10/17 00:17:14;;;;;;;10.82;6.68;;;17.00;99.90;;;;;;5000310;28;20036;-84
2022/10/17 00:19:41;;;;;;;7.82;5.97;;;17.00;99.90;;;;;;5030712;28;20404;-84
2022/10/17 00:22:06;;;;;;;11.13;6.43;;;17.00;99.90;;;;;;5016819;28;20029;-84
2022/10/17 00:25:28;;;;;;;7.90;5.30;;;17.00;99.90;;;;;;5000600;28;20916;-84
2022/10/17 00:27:54;;;;;;;9.98;6.13;;;17.00;99.90;;;;;;5030381;28;20061;-84
2022/10/17 00:30:19;;;;;;;10.20;6.10;;;17.00;99.90;;;;;;4995642;28;20053;-84
2022/10/17 00:32:45;;;;;;;8.95;5.78;;;17.00;99.90;;;;;;4997742;28;20033;-84
2022/10/17 00:35:11;;;;;;;8.60;6.10;;;17.00;99.90;;;;;;5016500;28;20118;-85
2022/10/17 00:37:37;;;;;;;11.32;6.63;;;17.00;99.90;;;;;;4996109;28;20095;-84
2022/10/17 00:40:04;;;;;;;10.07;6.55;;;17.00;99.90;;;;;;5015174;28;20108;-84
2022/10/17 00:42:29;;;;;;;8.00;6.35;;;16.90;99.90;;;;;;5016452;28;20705;-84
2022/10/17 00:45:22;;;;;;;8.40;6.25;;;16.90;99.90;;;;;;5009764;28;20178;-85
2022/10/17 00:47:57;;;;;;;8.95;6.03;;;16.90;99.90;;;;;;5029568;28;20108;-85
2022/10/17 00:50:24;;;;;;;8.65;6.00;;;16.90;99.90;;;;;;5013804;28;20367;-84
2022/10/17 00:52:50;;;;;;;7.18;5.25;;;16.90;99.90;;;;;;5020692;28;20531;-85
2022/10/17 00:55:22;;;;;;;9.27;5.63;;;16.90;99.90;;;;;;4995430;28;20895;-84
2022/10/17 00:57:48;;;;;;;9.65;6.07;;;16.80;99.90;;;;;;5026253;28;20026;-85
2022/10/17 01:00:15;;;;;;;8.23;5.85;;;16.90;99.90;;;;;;5029404;28;20080;-84
2022/10/17 01:02:41;;;;;;;8.52;5.68;;;16.90;99.90;;;;;;4981610;28;20026;-84
2022/10/17 01:05:08;;;;;;;9.88;6.10;;;16.90;99.90;;;;;;5031447;28;20025;-84
2022/10/17 01:07:34;;;;;;;9.40;5.60;;;16.90;99.90;;;;;;5029197;28;20087;-84
2022/10/17 01:10:00;;;;;;;8.35;6.28;;;16.90;99.90;;;;;;5030726;28;20075;-85
2022/10/17 01:13:03;;;;;;;9.63;6.78;;;16.80;99.90;;;;;;5031250;28;20483;-85
2022/10/17 01:15:32;;;;;;;10.02;6.68;;;16.80;99.90;;;;;;5032535;28;20025;-85
2022/10/17 01:18:25;;;;;;;9.32;7.05;;;16.80;99.90;;;;;;5014798;28;20406;-84
2022/10/17 01:21:09;;;;;;;8.40;6.07;;;16.80;99.90;;;;;;5024619;28;20026;-85
2022/10/17 01:24:11;;;;;;;8.48;6.47;;;16.80;99.90;;;;;;5013659;28;20120;-84
2022/10/17 01:26:55;;;;;;;8.23;6.57;;;16.80;99.90;;;;;;5013862;28;20030;-84
2022/10/17 01:29:59;;;;;;;10.07;7.05;;;16.80;99.90;;;;;;5029279;28;20025;-84
2022/10/17 01:32:33;;;;;;;8.10;6.25;;;16.80;99.90;;;;;;5030009;28;20018;-84
2022/10/17 01:35:22;;;;;;;8.48;5.82;;;16.70;99.90;;;;;;5031565;28;20428;-85
2022/10/17 01:38:00;;;;;;;8.02;6.22;;;16.70;99.90;;;;;;5031027;28;20032;-85
2022/10/17 01:40:37;;;;;;;7.78;6.10;;;16.70;99.90;;;;;;5025540;28;20018;-84
2022/10/17 01:43:17;;;;;;;8.73;5.65;;;16.70;99.90;;;;;;5030357;28;20033;-84
2022/10/17 01:45:56;;;;;;;7.95;5.93;;;16.70;99.90;;;;;;5010924;28;20388;-84
2022/10/17 01:48:23;;;;;;;8.45;5.90;;;16.70;99.90;;;;;;5011919;28;20021;-85
2022/10/17 01:51:06;;;;;;;7.43;5.55;;;16.70;99.90;;;;;;5009059;28;20037;-84
2022/10/17 01:54:13;;;;;;;7.35;5.72;;;16.70;99.90;;;;;;5005583;28;20045;-85
2022/10/17 01:56:42;;;;;;;8.00;5.72;;;16.70;99.90;;;;;;4918380;29;20527;-85
2022/10/17 01:59:22;;;;;;;9.07;5.63;;;16.70;99.90;;;;;;5005447;28;20102;-84
2022/10/17 02:01:51;;;;;;;8.00;5.30;;;16.60;99.90;;;;;;5030966;28;20022;-85
2022/10/17 02:04:17;;;;;;;8.27;5.68;;;16.60;99.90;;;;;;5025468;28;20033;-85
2022/10/17 02:10:14;;;;;;;10.32;6.82;;;16.60;99.90;;;;;;5028131;28;20028;-85
2022/10/17 02:12:58;;;;;;;16.48;6.88;;;16.60;99.90;;;;;;5028054;28;20093;-85
2022/10/17 02:15:34;;;;;;;9.38;7.10;;;16.60;99.90;;;;;;4993489;28;20163;-85
2022/10/17 02:18:36;;;;;;;9.20;7.05;;;16.60;99.90;;;;;;4991101;28;20022;-85
2022/10/17 02:21:04;;;;;;;;;;;16.60;99.90;;;;;;4998326;28;20022;-84
2022/10/17 02:23:50;;;;;;;9.45;7.22;;;16.60;99.90;;;;;;5009793;28;19956;-85
2022/10/17 02:26:34;;;;;;;11.07;7.43;;;16.50;99.90;;;;;;5009218;28;20049;-85
2022/10/17 02:29:08;;;;;;;8.98;7.35;;;16.50;99.90;;;;;;5008719;28;20485;-83
2022/10/17 02:31:43;;;;;;;11.13;7.30;;;16.50;99.90;;;;;;5008612;28;20046;-83
2022/10/17 02:34:19;;;;;;;9.50;7.75;;;16.50;99.90;;;;;;4994169;28;20022;-83
2022/10/17 02:36:50;;;;;;;10.77;7.65;;;16.50;99.90;;;;;;4994275;28;20018;-83
2022/10/17 02:39:20;;;;;;;12.18;7.65;;;16.50;99.90;;;;;;4995828;28;20120;-83
2022/10/17 02:41:48;;;;;;;9.45;7.75;;;16.50;99.90;;;;;;4978761;28;20025;-83
2022/10/17 02:44:15;;;;;;;8.65;7.30;;;16.50;99.90;;;;;;5008976;28;20117;-83
2022/10/17 02:46:47;;;;;;;9.43;7.47;;;16.50;99.90;;;;;;4994292;28;20097;-84
2022/10/17 02:49:21;;;;;;;8.65;7.13;;;16.40;99.90;;;;;;4993724;28;20018;-83
2022/10/17 02:52:16;;;;;;;7.85;6.55;;;16.40;99.90;;;;;;5011972;28;20028;-83
2022/10/17 02:55:18;;;;;;;10.02;7.57;;;16.40;99.90;;;;;;4996360;28;20475;-83
2022/10/17 02:57:50;;;;;;;8.48;7.07;;;16.40;99.90;;;;;;4989621;28;20037;-84
2022/10/17 03:00:17;;;;;;;12.55;6.43;;;16.40;99.90;;;;;;5010040;28;20040;-83
2022/10/17 03:02:44;;;;;;;8.10;6.18;;;16.40;99.90;;;;;;4994798;28;20025;-83
2022/10/17 03:05:12;;;;;;;7.38;5.70;;;16.40;99.90;;;;;;4996241;28;20112;-84
2022/10/17 03:07:38;;;;;;;7.28;5.72;;;16.40;99.90;;;;;;4997656;28;20045;-84
2022/10/17 03:10:04;;;;;;;8.93;6.03;;;16.40;99.90;;;;;;5013314;28;20467;-84
2022/10/17 03:12:30;;;;;;;9.10;6.20;;;16.40;99.90;;;;;;5000150;28;20026;-84
2022/10/17 03:14:56;;;;;;;8.27;5.85;;;16.40;99.90;;;;;;5002067;28;20436;-85
2022/10/17 03:17:21;;;;;;;8.07;5.95;;;16.40;99.90;;;;;;5017886;28;20068;-85
2022/10/17 03:19:47;;;;;;;10.18;5.95;;;16.50;99.90;;;;;;4986726;28;20398;-85
2022/10/17 03:22:13;;;;;;;8.77;6.25;;;16.40;99.90;;;;;;5001695;28;20390;-85
2022/10/17 03:24:38;;;;;;;11.00;6.85;;;16.40;99.90;;;;;;5002266;28;20633;-84
2022/10/17 03:27:04;;;;;;;6.50;5.70;;;16.50;99.90;;;;;;5000982;28;20025;-84
2022/10/17 03:29:30;;;;;;;8.35;5.57;;;16.40;99.90;;;;;;5018900;28;20037;-84
2022/10/17 03:31:56;;;;;;;8.38;5.40;;;16.40;99.90;;;;;;5017177;28;20104;-85
2022/10/17 03:34:21;;;;;;;5.88;4.95;;;16.40;99.90;;;;;;5003413;28;20079;-85
2022/10/17 03:36:47;;;;;;;7.18;5.10;;;16.40;99.90;;;;;;5017254;28;20108;-85
2022/10/17 03:39:13;;;;;;;9.65;5.80;;;16.50;99.90;;;;;;4999788;28;20029;-84
2022/10/17 03:41:39;;;;;;;7.75;5.63;;;16.50;99.90;;;;;;5017082;28;20363;-84
2022/10/17 03:44:04;;;;;;;10.73;6.03;;;16.50;99.90;;;;;;5002096;28;20018;-84
2022/10/17 03:46:30;;;;;;;9.60;5.95;;;16.50;99.90;;;;;;4999731;28;20138;-84
2022/10/17 03:48:55;;;;;;;8.57;5.25;;;16.50;99.90;;;;;;4999625;28;20032;-84
2022/10/17 03:51:21;;;;;;;8.73;6.15;;;16.50;99.90;;;;;;4991591;28;20030;-84
2022/10/17 03:53:47;;;;;;;6.78;5.63;;;16.50;99.90;;;;;;5003078;28;20486;-84
2022/10/17 03:56:14;;;;;;;10.48;5.65;;;16.50;99.90;;;;;;4990603;28;20021;-84
2022/10/17 03:58:40;;;;;;;9.90;6.00;;;16.50;99.90;;;;;;5012391;28;20022;-84
2022/10/17 04:01:11;;;;;;;7.55;6.13;;;16.50;99.90;;;;;;5020397;28;20021;-84
2022/10/17 04:03:37;;;;;;;7.40;5.32;;;16.50;99.90;;;;;;5014520;28;20367;-84
2022/10/17 04:06:04;;;;;;;6.60;5.30;;;16.50;99.90;;;;;;4999941;28;20107;-84
2022/10/17 04:08:30;;;;;;;7.32;5.57;;;16.40;99.90;;;;;;5033916;28;20032;-84
2022/10/17 04:11:00;;;;;;;7.68;5.97;;;16.50;99.90;;;;;;5018589;28;20546;-85
2022/10/17 04:13:26;;;;;;;9.03;5.93;;;16.40;99.90;;;;;;5013224;28;20045;-84
2022/10/17 04:15:59;;;;;;;6.85;5.78;;;16.40;99.90;;;;;;5034071;28;20124;-84
2022/10/17 04:18:25;;;;;;;8.75;5.75;;;16.40;99.90;;;;;;5030030;28;20489;-84
2022/10/17 04:20:51;;;;;;;8.27;5.88;;;16.40;99.90;;;;;;5013780;28;20026;-85
2022/10/17 04:23:17;;;;;;;9.10;6.43;;;16.40;99.90;;;;;;5026539;28;20034;-85
2022/10/17 04:25:43;;;;;;;7.70;6.22;;;16.40;99.90;;;;;;5041208;28;20029;-85
2022/10/17 04:28:08;;;;;;;7.88;5.88;;;16.40;99.90;;;;;;5007772;28;20033;-85
2022/10/17 04:30:34;;;;;;;8.07;6.45;;;16.40;99.90;;;;;;5049732;28;20037;-85
2022/10/17 04:33:00;;;;;;;8.35;5.78;;;16.40;99.90;;;;;;5015463;28;20026;-85
2022/10/17 04:35:26;;;;;;;8.18;6.03;;;16.40;99.90;;;;;;5021047;28;20033;-85
2022/10/17 04:37:54;;;;;;;9.23;6.70;;;16.30;99.90;;;;;;4996072;28;20501;-84
2022/10/17 04:40:20;;;;;;;8.45;6.30;;;16.40;99.90;;;;;;4991996;28;20046;-84
2022/10/17 04:42:46;;;;;;;8.77;6.32;;;16.40;99.90;;;;;;4999632;28;20025;-83
2022/10/17 04:45:11;;;;;;;7.82;5.78;;;16.30;99.90;;;;;;5014624;28;20103;-84
2022/10/17 04:47:37;;;;;;;7.40;5.93;;;16.30;99.90;;;;;;5025654;28;20030;-85
2022/10/17 04:50:05;;;;;;;7.30;5.70;;;16.30;99.90;;;;;;5007083;28;20009;-85
2022/10/17 04:52:33;;;;;;;7.47;5.55;;;16.30;99.90;;;;;;5012569;28;20022;-85
2022/10/17 04:54:59;;;;;;;8.35;5.35;;;16.30;99.90;;;;;;5008264;28;20103;-85
2022/10/17 04:57:25;;;;;;;7.00;5.20;;;16.30;99.90;;;;;;5016984;28;20033;-86
2022/10/17 04:59:50;;;;;;;8.10;5.72;;;16.30;99.90;;;;;;5004025;28;20029;-85
2022/10/17 05:02:16;;;;;;;9.35;6.75;;;16.30;99.90;;;;;;5016588;28;20060;-85
2022/10/17 05:04:42;;;;;;;10.13;6.00;;;16.30;99.90;;;;;;5025936;28;20030;-85
2022/10/17 05:07:07;;;;;;;7.20;5.75;;;16.30;99.90;;;;;;5029264;28;20136;-84
2022/10/17 05:09:33;;;;;;;8.05;5.45;;;16.30;99.90;;;;;;5016529;28;20045;-84
2022/10/17 05:11:59;;;;;;;7.25;6.07;;;16.30;99.90;;;;;;5029122;28;20038;-84
2022/10/17 05:14:25;;;;;;;9.70;6.00;;;16.30;99.90;;;;;;5002068;28;20053;-84
2022/10/17 05:16:50;;;;;;;11.15;6.35;;;16.30;99.90;;;;;;5027901;28;20026;-83
2022/10/17 05:19:17;;;;;;;11.38;5.78;;;16.30;99.90;;;;;;5015409;28;20659;-83
2022/10/17 05:21:43;;;;;;;8.05;5.47;;;16.30;99.90;;;;;;5028925;28;20549;-83
2022/10/17 05:24:10;;;;;;;7.72;5.72;;;16.30;99.90;;;;;;5016154;28;20056;-84
2022/10/17 05:26:36;;;;;;;7.63;5.72;;;16.30;99.90;;;;;;5030889;28;20026;-84
2022/10/17 05:29:03;;;;;;;7.53;5.90;;;16.30;99.90;;;;;;4995795;28;20025;-83
2022/10/17 05:31:29;;;;;;;10.23;5.53;;;16.30;99.90;;;;;;5014712;28;20052;-84
2022/10/17 05:33:59;;;;;;;7.57;5.40;;;16.30;99.90;;;;;;4995302;28;20045;-83
2022/10/17 05:36:30;;;;;;;10.20;6.03;;;16.30;99.90;;;;;;5014795;28;20022;-84
2022/10/17 05:38:56;;;;;;;8.98;5.15;;;16.30;99.90;;;;;;5031788;28;20026;-84
2022/10/17 05:41:22;;;;;;;10.00;5.60;;;16.30;99.90;;;;;;4991325;28;20025;-84
2022/10/17 05:43:49;;;;;;;9.10;5.53;;;16.30;99.90;;;;;;5022789;28;20033;-85
2022/10/17 05:46:17;;;;;;;8.73;5.18;;;16.40;99.90;;;;;;5021129;28;20387;-84
2022/10/17 05:48:43;;;;;;;8.70;5.80;;;16.40;99.90;;;;;;4997543;28;20046;-84
2022/10/17 05:51:09;;;;;;;14.45;6.38;;;16.40;99.90;;;;;;5018102;28;20104;-84
2022/10/17 05:53:38;;;;;;;8.15;5.80;;;16.50;99.90;;;;;;5029265;28;20018;-84
2022/10/17 05:56:08;;;;;;;7.95;6.00;;;16.40;99.90;;;;;;5031628;28;20459;-84
2022/10/17 05:58:55;;;;;;;7.78;5.68;;;16.50;99.90;;;;;;5026391;28;20022;-84
2022/10/17 06:01:21;;;;;;;9.77;5.80;;;16.50;99.90;;;;;;4997067;28;20045;-83
2022/10/17 06:03:46;;;;;;;13.15;6.00;;;16.60;99.90;;;;;;5012974;28;20034;-84
2022/10/17 06:06:13;;;;;;;8.00;5.93;;;16.60;99.90;;;;;;4989061;28;20030;-84
2022/10/17 06:08:40;;;;;;;7.85;6.22;;;16.60;99.90;;;;;;4994943;28;20602;-84
2022/10/17 06:11:05;;;;;;;10.20;7.25;;;16.70;99.90;;;;;;5022365;28;20101;-84
2022/10/17 06:13:31;;;;;;;7.07;6.05;;;16.70;99.90;;;;;;5016280;28;20058;-84
2022/10/17 06:15:57;;;;;;;9.00;6.13;;;16.70;99.90;;;;;;5014185;28;20446;-84
2022/10/17 06:18:23;;;;;;;7.85;5.55;;;16.70;99.90;;;;;;5012122;28;20038;-84
2022/10/17 06:20:48;;;;;;;11.18;6.28;;;16.70;99.90;;;;;;5017798;28;20025;-84
2022/10/17 06:23:14;;;;;;;10.10;6.70;;;16.70;99.90;;;;;;5031454;28;20033;-85
2022/10/17 06:25:43;;;;;;;10.20;6.32;;;16.80;99.90;;;;;;4982130;28;20450;-84
2022/10/17 06:28:10;;;;;;;8.48;6.25;;;16.80;99.90;;;;;;5034575;22;20052;-86
2022/10/17 06:30:38;;;;;;;14.77;6.82;;;16.80;99.90;;;;;;5019244;28;20051;-86
2022/10/17 06:33:04;;;;;;;9.77;6.15;;;16.80;99.90;;;;;;5019188;28;20029;-86
2022/10/17 06:35:30;;;;;;;11.27;6.38;;;16.80;99.90;;;;;;5003515;28;20022;-86
2022/10/17 06:37:55;;;;;;;11.02;5.93;;;16.80;99.90;;;;;;5005947;28;20037;-86
2022/10/17 06:40:21;;;;;;;12.23;6.90;;;16.80;99.90;;;;;;5004434;28;20089;-86
2022/10/17 06:42:47;;;;;;;8.75;6.20;;;16.80;99.90;;;;;;4986083;28;20439;-86
2022/10/17 06:45:13;;;;;;;10.02;6.28;;;16.80;99.90;;;;;;5007020;28;20036;-86
2022/10/17 06:47:39;;;;;;;12.07;6.20;;;16.80;99.90;;;;;;5007436;28;20029;-86
2022/10/17 06:50:05;;;;;;;10.38;6.78;;;16.80;99.90;;;;;;5002851;28;20045;-87
2022/10/17 06:52:31;;;;;;;9.50;6.55;;;16.80;99.90;;;;;;5000555;28;20498;-87
2022/10/17 06:54:57;;;;;;;10.50;6.50;;;16.80;99.90;;;;;;4999762;28;20018;-86
2022/10/17 06:57:22;;;;;;;11.68;7.22;;;16.90;99.90;;;;;;5024900;28;20096;-86
2022/10/17 06:59:48;;;;;;;8.55;6.57;;;16.90;99.90;;;;;;4989274;28;20034;-86
2022/10/17 07:02:14;;;;;;;10.02;6.45;;;16.90;99.90;;;;;;5011602;28;20052;-87
2022/10/17 07:04:39;;;;;;;8.13;6.30;;;16.90;99.90;;;;;;5008107;28;20030;-87
2022/10/17 07:07:05;;;;;;;9.20;5.88;;;17.00;99.90;;;;;;5021400;28;20034;-87
2022/10/17 07:09:31;;;;;;;9.18;5.75;;;17.00;99.90;;;;;;5016285;28;20034;-87
2022/10/17 07:11:58;;;;;;;8.13;6.10;;;17.00;99.90;;;;;;5016345;28;20021;-86
2022/10/17 07:14:30;;;;;;;8.73;6.55;;;17.00;99.90;;;;;;5009047;28;20026;-87
2022/10/17 07:16:57;;;;;;;6.93;6.05;;;17.10;99.90;;;;;;5022037;28;20033;-88
2022/10/17 07:19:23;;;;;;;9.02;6.30;;;17.10;99.90;;;;;;4990274;28;20098;-88
2022/10/17 07:21:49;;;;;;;6.30;5.55;;;17.10;99.90;;;;;;4988842;28;20084;-87
2022/10/17 07:24:15;;;;;;;7.55;5.88;;;17.10;99.90;;;;;;4977456;28;20034;-86
2022/10/17 07:26:41;;;;;;;10.02;5.97;;;17.10;99.90;;;;;;4999540;28;20045;-87
2022/10/17 07:29:08;;;;;;;9.35;6.20;;;17.20;99.90;;;;;;5000657;28;20138;-86
2022/10/17 07:31:34;;;;;;;8.18;6.03;;;17.20;99.90;;;;;;5029563;28;20029;-86
2022/10/17 07:33:59;;;;;;;8.50;5.72;;;17.20;99.90;;;;;;5023181;28;20018;-86
2022/10/17 07:36:25;;;;;;;9.13;6.38;;;17.20;99.90;;;;;;5008011;28;20387;-86
2022/10/17 07:38:51;;;;;;;9.90;6.20;;;17.20;99.90;;;;;;5014434;28;20026;-85
2022/10/17 07:41:18;;;;;;;8.85;6.05;;;17.30;99.90;;;;;;5019625;28;20026;-85
2022/10/17 07:43:44;;;;;;;13.63;7.00;;;17.30;99.90;;;;;;5001719;28;20518;-85
2022/10/17 07:46:11;;;;;;;8.98;6.25;;;17.40;99.90;;;;;;5022402;28;20025;-86
2022/10/17 07:48:38;;;;;;;17.25;6.95;;;17.40;99.90;;;;;;5037144;28;20071;-87
2022/10/17 07:51:08;;;;;;;10.23;6.22;;;17.40;99.90;;;;;;5037281;28;20026;-86
2022/10/17 07:53:36;;;;;;;9.85;6.50;;;17.50;99.90;;;;;;4995050;28;20094;-86
2022/10/17 07:56:08;;;;;;;11.90;6.88;;;17.50;99.90;;;;;;5022361;28;20022;-85
2022/10/17 07:58:35;;;;;;;11.57;7.13;;;17.50;99.90;;;;;;5005091;28;20048;-85
2022/10/17 08:01:05;;;;;;;12.77;7.57;;;17.50;99.90;;;;;;5011532;28;20052;-86
2022/10/17 08:03:31;;;;;;;10.07;7.30;;;17.50;99.90;;;;;;5021304;28;20079;-86
2022/10/17 08:06:01;;;;;;;13.50;8.02;;;17.60;99.90;;;;;;5002242;28;20034;-88
2022/10/17 08:08:27;;;;;;;10.65;6.82;;;17.60;99.90;;;;;;5018197;28;20091;-89
2022/10/17 08:10:54;;;;;;;14.88;6.75;;;17.60;99.90;;;;;;5033137;28;20030;-89
2022/10/17 08:13:21;;;;;;;16.42;7.10;;;17.60;99.90;;;;;;5016426;28;20061;-88
2022/10/17 08:15:47;;;;;;;11.07;7.30;;;17.60;99.90;;;;;;4990005;28;20383;-87
2022/10/17 08:18:14;;;;;;;10.48;7.20;;;17.60;99.90;;;;;;5005180;28;20060;-87
2022/10/17 08:20:43;;;;;;;15.50;8.85;;;17.70;99.90;;;;;;5003018;28;20040;-86
2022/10/17 08:23:08;;;;;;;12.45;8.45;;;17.70;99.90;;;;;;4990733;28;20533;-86
2022/10/17 08:25:39;;;;;;;15.60;9.00;;;17.70;99.90;;;;;;4993614;28;20038;-85
2022/10/17 08:28:05;;;;;;;15.57;9.13;;;17.70;99.90;;;;;;5003292;28;20415;-86
2022/10/17 08:30:31;;;;;;;13.48;9.27;;;17.70;99.90;;;;;;5001630;28;20022;-85
2022/10/17 08:32:57;;;;;;;15.00;8.65;;;17.70;99.90;;;;;;5004261;28;20032;-86
2022/10/17 08:35:25;;;;;;;13.38;8.25;;;17.60;99.90;;;;;;5004007;28;20025;-85
2022/10/17 08:37:51;;;;;;;16.40;8.98;;;17.60;99.90;;;;;;5018405;28;20040;-84
2022/10/17 08:40:22;;;;;;;11.13;8.32;;;17.60;99.90;;;;;;5012650;28;20022;-84
2022/10/17 08:42:51;;;;;;;;;;;17.60;99.90;;;;;;5019017;28;20022;-85
2022/10/17 08:45:37;;;;;;;21.45;8.68;;;17.50;99.90;;;;;;5016778;28;19909;-85
2022/10/17 08:48:13;;;;;;;14.57;8.15;;;17.50;99.90;;;;;;5028721;28;20029;-84
2022/10/17 08:50:50;;;;;;;13.98;8.60;;;17.50;99.90;;;;;;5017504;28;20022;-85
2022/10/17 08:53:29;;;;;;;15.85;9.77;;;17.50;99.90;;;;;;5002063;28;20019;-85
2022/10/17 08:55:56;;;;;;;11.80;8.45;;;17.40;99.90;;;;;;5000890;28;20113;-85
2022/10/17 08:58:31;;;;;;;19.02;10.50;;;17.40;99.90;;;;;;5030027;28;20021;-84
2022/10/17 09:01:22;;;;;;;16.02;9.05;;;17.40;99.90;;;;;;5011012;28;20485;-84
2022/10/17 09:04:01;;;;;;;;;;;17.40;99.90;;;;;;5013801;28;20027;-84
2022/10/17 09:06:35;;;;;;;15.73;9.43;;;17.40;99.90;;;;;;5010993;28;19906;-84
2022/10/17 09:09:20;;;;;;;16.00;9.35;;;17.40;99.90;;;;;;5014996;28;20386;-85
2022/10/17 09:12:12;;;;;;;15.82;9.40;;;17.30;99.90;;;;;;5008779;28;20041;-84
2022/10/17 09:14:59;;;;;;;13.68;9.32;;;17.30;99.90;;;;;;5018807;28;20112;-84
2022/10/17 09:17:27;;;;;;;13.88;9.85;;;17.30;99.90;;;;;;5017073;28;20029;-84
2022/10/17 09:20:16;;;;;;;16.92;9.80;;;17.30;99.90;;;;;;5012897;28;20033;-84
2022/10/17 09:23:09;;;;;;;13.15;9.95;;;17.30;99.90;;;;;;5009904;28;20030;-84
2022/10/17 09:25:42;;;;;;;17.65;9.32;;;17.30;99.90;;;;;;5027719;28;20057;-85
2022/10/17 09:28:30;;;;;;;15.45;10.70;;;17.30;99.90;;;;;;5028189;28;20030;-85
2022/10/17 09:31:15;;;;;;;17.63;10.48;;;17.30;99.90;;;;;;4992183;28;20113;-84
2022/10/17 09:33:43;;;;;;;16.50;10.38;;;17.30;99.90;;;;;;4992157;28;20112;-85
2022/10/17 09:36:17;;;;;;;15.82;9.23;;;17.30;99.90;;;;;;5008174;28;20022;-85
2022/10/17 09:38:51;;;;;;;17.40;9.68;;;17.30;99.90;;;;;;5002075;28;20030;-86
2022/10/17 09:41:54;;;;;;;14.50;9.15;;;17.30;99.90;;;;;;4997506;28;20483;-86
2022/10/17 09:44:35;;;;;;;17.48;11.00;;;17.30;99.90;;;;;;4955477;28;20052;-85
2022/10/17 09:47:00;;;;;;;15.73;9.55;;;17.30;99.90;;;;;;5002174;28;20025;-84
2022/10/17 09:49:38;;;;;;;18.52;10.23;;;17.30;99.90;;;;;;4993785;28;20379;-85
2022/10/17 09:52:17;;;;;;;17.23;10.73;;;17.30;99.90;;;;;;4996435;28;20021;-85
2022/10/17 09:54:57;;;;;;;18.05;10.45;;;17.30;99.90;;;;;;4994437;28;20380;-84
2022/10/17 09:57:24;;;;;;;18.98;10.68;;;17.30;99.90;;;;;;5010600;28;20030;-84
2022/10/17 10:00:01;;;;;;;15.02;10.07;;;17.20;99.90;;;;;;4984575;28;20022;-84
2022/10/17 10:02:29;;;;;;;21.67;9.88;;;17.20;99.90;;;;;;5000333;28;20017;-84
2022/10/17 10:05:03;;;;;;;14.80;10.77;;;17.20;99.90;;;;;;4991334;28;20124;-84
2022/10/17 10:07:35;;;;;;;16.35;10.57;;;17.20;99.90;;;;;;4995929;28;20495;-84
2022/10/17 10:10:03;;;;;;;15.70;10.35;;;17.20;99.90;;;;;;4998997;28;20076;-85
2022/10/17 10:12:37;;;;;;;18.88;10.93;;;17.30;99.90;;;;;;5007207;28;20013;-84
2022/10/17 10:15:31;;;;;;;18.15;10.30;;;17.30;99.90;;;;;;4999071;28;20026;-86
2022/10/17 10:17:56;;;;;;;19.90;10.40;;;17.30;99.90;;;;;;4997514;28;20018;-85
2022/10/17 10:20:36;;;;;;;16.58;10.63;;;17.30;99.90;;;;;;4996805;28;20034;-85
2022/10/17 10:23:08;;;;;;;16.50;10.20;;;17.30;99.90;;;;;;4995310;28;20021;-85
2022/10/17 10:25:35;;;;;;;18.17;10.45;;;17.30;99.90;;;;;;4999411;28;20052;-85
2022/10/17 10:28:01;;;;;;;19.00;10.27;;;17.30;99.90;;;;;;5000838;28;20378;-84
2022/10/17 10:30:29;;;;;;;17.83;10.10;;;17.30;99.90;;;;;;5012924;28;20045;-85
2022/10/17 10:32:59;;;;;;;17.40;10.82;;;17.30;99.90;;;;;;5018771;28;20025;-85
2022/10/17 10:35:32;;;;;;;14.10;9.48;;;17.30;99.90;;;;;;5016520;28;20600;-86
2022/10/17 10:38:00;;;;;;;16.58;10.20;;;17.30;99.90;;;;;;5020574;28;20083;-86
2022/10/17 10:40:27;;;;;;;16.67;9.50;;;17.30;99.90;;;;;;5010839;28;20025;-86
2022/10/17 10:42:56;;;;;;;17.25;10.50;;;17.30;99.90;;;;;;5021503;28;20025;-86
2022/10/17 10:45:26;;;;;;;15.80;10.23;;;17.30;99.90;;;;;;5023839;28;20025;-87
2022/10/17 10:48:33;;;;;;;17.23;11.23;;;17.30;99.90;;;;;;5031053;28;20461;-83
2022/10/17 10:51:18;;;;;;;18.95;11.43;;;17.30;99.90;;;;;;5014819;28;20018;-86
2022/10/17 10:54:10;;;;;;;20.00;12.18;;;17.30;99.90;;;;;;5018217;28;20173;-86
2022/10/17 10:57:06;;;;;;;18.95;10.32;;;17.30;99.90;;;;;;5016666;28;20064;-86
2022/10/17 11:00:11;;;;;;;20.33;11.43;;;17.40;99.90;;;;;;4992337;28;20403;-86
2022/10/17 11:02:58;;;;;;;19.83;12.43;;;17.40;99.90;;;;;;5025896;28;20103;-86
2022/10/17 11:05:42;;;;;;;17.73;11.13;;;17.40;99.90;;;;;;5023459;28;20029;-87
2022/10/17 11:08:36;;;;;;;17.45;10.77;;;17.40;99.90;;;;;;5010045;28;20085;-87
2022/10/17 11:11:29;;;;;;;15.88;9.93;;;17.50;99.90;;;;;;5018154;28;20022;-87
2022/10/17 11:14:20;;;;;;;18.10;10.50;;;17.50;99.90;;;;;;5024069;28;20116;-87
2022/10/17 11:17:16;;;;;;;15.00;9.77;;;17.50;99.90;;;;;;5017113;28;20076;-87
2022/10/17 11:19:51;;;;;;;15.35;9.10;;;17.50;99.90;;;;;;5025641;28;20025;-87
2022/10/17 11:22:31;;;;;;;14.60;8.85;;;17.50;99.90;;;;;;5028230;28;20163;-87
2022/10/17 11:25:18;;;;;;;17.30;10.52;;;17.50;99.90;;;;;;5028581;28;20022;-87
2022/10/17 11:27:44;;;;;;;18.48;10.35;;;17.60;99.90;;;;;;5021397;28;20025;-86
2022/10/17 11:30:16;;;;;;;15.57;10.65;;;17.60;99.90;;;;;;5002501;28;20400;-87
2022/10/17 11:32:49;;;;;;;15.73;10.23;;;17.60;99.90;;;;;;4984030;28;20511;-87
2022/10/17 11:35:28;;;;;;;20.85;12.57;;;17.60;99.90;;;;;;5006922;28;20172;-86
2022/10/17 11:38:17;;;;;;;18.00;11.90;;;17.60;99.90;;;;;;4999227;28;20037;-87
2022/10/17 11:40:55;;;;;;;24.50;13.52;;;17.60;99.90;;;;;;5004083;28;20080;-86
2022/10/17 11:43:35;;;;;;;18.17;12.25;;;17.60;99.90;;;;;;4994249;28;20030;-86
2022/10/17 11:46:25;;;;;;;18.73;12.90;;;17.60;99.90;;;;;;4992829;28;20384;-86
2022/10/17 11:49:11;;;;;;;23.35;13.80;;;17.60;99.90;;;;;;4987637;28;20484;-86
2022/10/17 11:51:59;;;;;;;18.05;11.93;;;17.60;99.90;;;;;;5000135;28;20018;-87
2022/10/17 11:54:29;;;;;;;28.33;13.23;;;17.70;99.90;;;;;;4993936;28;20498;-86
2022/10/17 11:57:15;;;;;;;22.05;13.73;;;17.70;99.90;;;;;;5014189;28;20029;-87
2022/10/17 11:59:47;;;;;;;21.40;14.10;;;17.70;99.90;;;;;;5000690;28;20036;-87
2022/10/17 12:02:32;;;;;;;21.92;14.00;;;17.70;99.90;;;;;;4992126;28;20539;-86
2022/10/17 12:05:35;;;;;;;21.65;13.60;;;17.70;99.90;;;;;;5000647;28;20371;-87
2022/10/17 12:08:05;;;;;;;20.05;12.55;;;17.70;99.90;;;;;;4970750;28;20030;-87
2022/10/17 12:11:03;;;;;;;18.57;12.57;;;17.70;99.90;;;;;;4999863;28;20021;-87
2022/10/17 12:13:33;;;;;;;21.40;13.52;;;17.70;99.90;;;;;;4965736;28;20022;-87
2022/10/17 12:16:18;;;;;;;18.77;12.88;;;17.70;99.90;;;;;;5000597;28;20030;-87
2022/10/17 12:18:45;;;;;;;24.98;13.18;;;17.70;99.90;;;;;;5000338;28;20029;-87
2022/10/17 12:21:11;;;;;;;22.83;13.57;;;17.70;99.90;;;;;;4999893;28;20105;-87
2022/10/17 12:23:40;;;;;;;24.13;14.80;;;17.70;99.90;;;;;;5000405;28;20057;-87
2022/10/17 12:26:09;;;;;;;19.60;13.30;;;17.70;99.90;;;;;;4970858;28;20040;-87
2022/10/17 12:28:46;;;;;;;25.95;14.43;;;17.80;99.90;;;;;;4986735;28;20398;-87
2022/10/17 12:31:16;;;;;;;21.77;14.05;;;17.80;99.90;;;;;;4999981;28;20025;-86
2022/10/17 12:33:52;;;;;;;25.63;15.43;;;17.70;99.90;;;;;;4999517;28;20095;-87
2022/10/17 12:36:17;;;;;;;21.95;13.80;;;17.70;99.90;;;;;;4999711;28;20471;-87
2022/10/17 12:38:45;;;;;;;22.77;13.73;;;17.80;99.90;;;;;;4999993;28;20030;-88
2022/10/17 12:41:12;;;;;;;25.88;17.23;;;17.80;99.90;;;;;;4997776;28;20131;-86
2022/10/17 12:43:52;;;;;;;24.83;14.93;;;17.80;99.90;;;;;;4991918;28;20030;-88
2022/10/17 12:46:44;;;;;;;24.85;14.38;;;17.70;99.90;;;;;;5017207;28;20386;-88
2022/10/17 12:49:44;;;;;;;22.05;13.55;;;17.70;99.90;;;;;;5000886;28;20100;-88
2022/10/17 12:52:21;;;;;;;26.33;13.90;;;17.70;99.90;;;;;;4982792;28;20030;-88
2022/10/17 12:54:58;;;;;;;20.35;14.05;;;17.80;99.90;;;;;;4990290;28;20117;-88
2022/10/17 12:57:46;;;;;;;19.92;13.15;;;17.80;99.90;;;;;;4993046;28;20034;-89
2022/10/17 13:00:24;;;;;;;19.38;13.52;;;17.80;99.90;;;;;;4985547;28;20088;-89
2022/10/17 13:02:53;;;;;;;18.30;13.15;;;17.80;99.90;;;;;;4994733;28;20037;-88
2022/10/17 13:05:29;;;;;;;19.50;13.10;;;17.80;99.90;;;;;;5016281;28;20083;-88
2022/10/17 13:07:58;;;;;;;26.25;15.70;;;17.80;99.90;;;;;;4998801;28;20033;-88
2022/10/17 13:10:29;;;;;;;19.27;12.45;;;17.80;99.90;;;;;;5005159;28;20026;-88